sensor_id;sensor_type;location;lat;lon;timestamp;temperature;humidity
69281;SHT31;56392;51.082;17.080;2023-09-08T00:05:00;16.94;76.90
69281;SHT31;56392;51.082;17.080;2023-09-08T00:10:25;16.96;76.56
69281;SHT31;56392;51.082;17.080;2023-09-08T00:15:49;16.85;76.60
69281;SHT31;56392;51.082;17.080;2023-09-08T00:21:18;16.78;76.80
69281;SHT31;56392;51.082;17.080;2023-09-08T00:26:41;16.75;76.92
69281;SHT31;56392;51.082;17.080;2023-09-08T00:32:06;16.72;77.01
69281;SHT31;56392;51.082;17.080;2023-09-08T00:37:30;16.65;76.94
69281;SHT31;56392;51.082;17.080;2023-09-08T00:42:53;16.57;77.21
69281;SHT31;56392;51.082;17.080;2023-09-08T00:48:16;16.57;77.20
69281;SHT31;56392;51.082;17.080;2023-09-08T00:53:41;16.57;77.12
69281;SHT31;56392;51.082;17.080;2023-09-08T00:59:05;16.51;77.31
69281;SHT31;56392;51.082;17.080;2023-09-08T01:04:28;16.44;77.19
69281;SHT31;56392;51.082;17.080;2023-09-08T01:09:53;16.37;77.22
69281;SHT31;56392;51.082;17.080;2023-09-08T01:15:16;16.39;77.18
69281;SHT31;56392;51.082;17.080;2023-09-08T01:20:53;16.37;77.19
69281;SHT31;56392;51.082;17.080;2023-09-08T01:26:23;16.29;77.27
69281;SHT31;56392;51.082;17.080;2023-09-08T01:31:50;16.17;77.56
69281;SHT31;56392;51.082;17.080;2023-09-08T01:37:13;16.19;77.82
69281;SHT31;56392;51.082;17.080;2023-09-08T01:42:38;16.22;77.56
69281;SHT31;56392;51.082;17.080;2023-09-08T01:48:02;16.19;77.50
69281;SHT31;56392;51.082;17.080;2023-09-08T01:53:26;16.19;77.43
69281;SHT31;56392;51.082;17.080;2023-09-08T01:58:50;16.13;77.42
69281;SHT31;56392;51.082;17.080;2023-09-08T02:04:13;16.00;77.87
69281;SHT31;56392;51.082;17.080;2023-09-08T02:09:37;15.91;77.90
69281;SHT31;56392;51.082;17.080;2023-09-08T02:15:02;15.92;77.77
69281;SHT31;56392;51.082;17.080;2023-09-08T02:20:25;15.89;77.77
69281;SHT31;56392;51.082;17.080;2023-09-08T02:25:48;15.83;77.69
69281;SHT31;56392;51.082;17.080;2023-09-08T02:31:13;15.82;77.90
69281;SHT31;56392;51.082;17.080;2023-09-08T02:36:36;15.81;77.63
69281;SHT31;56392;51.082;17.080;2023-09-08T02:41:58;15.68;78.07
69281;SHT31;56392;51.082;17.080;2023-09-08T02:47:23;15.69;77.87
69281;SHT31;56392;51.082;17.080;2023-09-08T02:52:46;15.68;77.88
69281;SHT31;56392;51.082;17.080;2023-09-08T02:58:09;15.66;78.02
69281;SHT31;56392;51.082;17.080;2023-09-08T03:03:34;15.62;78.25
69281;SHT31;56392;51.082;17.080;2023-09-08T03:08:58;15.58;78.16
69281;SHT31;56392;51.082;17.080;2023-09-08T03:14:21;15.57;78.11
69281;SHT31;56392;51.082;17.080;2023-09-08T03:19:46;15.47;78.26
69281;SHT31;56392;51.082;17.080;2023-09-08T03:25:09;15.42;78.34
69281;SHT31;56392;51.082;17.080;2023-09-08T03:30:32;15.41;78.05
69281;SHT31;56392;51.082;17.080;2023-09-08T03:35:56;15.42;78.25
69281;SHT31;56392;51.082;17.080;2023-09-08T03:41:19;15.34;78.54
69281;SHT31;56392;51.082;17.080;2023-09-08T03:46:42;15.38;78.54
69281;SHT31;56392;51.082;17.080;2023-09-08T03:52:07;15.31;78.77
69281;SHT31;56392;51.082;17.080;2023-09-08T03:57:30;15.24;79.13
69281;SHT31;56392;51.082;17.080;2023-09-08T04:02:53;15.28;78.76
69281;SHT31;56392;51.082;17.080;2023-09-08T04:08:17;15.23;78.63
69281;SHT31;56392;51.082;17.080;2023-09-08T04:13:40;15.21;78.55
69281;SHT31;56392;51.082;17.080;2023-09-08T04:19:03;15.17;78.55
69281;SHT31;56392;51.082;17.080;2023-09-08T04:24:28;15.12;79.06
69281;SHT31;56392;51.082;17.080;2023-09-08T04:29:51;15.11;78.63
69281;SHT31;56392;51.082;17.080;2023-09-08T04:35:14;15.17;78.65
69281;SHT31;56392;51.082;17.080;2023-09-08T04:40:41;15.20;78.43
69281;SHT31;56392;51.082;17.080;2023-09-08T04:46:04;15.20;78.48
69281;SHT31;56392;51.082;17.080;2023-09-08T04:51:27;15.23;78.65
69281;SHT31;56392;51.082;17.080;2023-09-08T04:56:52;15.27;78.68
69281;SHT31;56392;51.082;17.080;2023-09-08T05:02:15;15.37;78.68
69281;SHT31;56392;51.082;17.080;2023-09-08T05:07:39;15.44;79.81
69281;SHT31;56392;51.082;17.080;2023-09-08T05:13:04;15.59;79.99
69281;SHT31;56392;51.082;17.080;2023-09-08T05:18:27;15.61;80.68
69281;SHT31;56392;51.082;17.080;2023-09-08T05:23:50;15.75;80.43
69281;SHT31;56392;51.082;17.080;2023-09-08T05:29:15;15.85;80.73
69281;SHT31;56392;51.082;17.080;2023-09-08T05:34:38;16.02;80.67
69281;SHT31;56392;51.082;17.080;2023-09-08T05:40:01;16.19;80.31
69281;SHT31;56392;51.082;17.080;2023-09-08T05:45:27;16.32;80.08
69281;SHT31;56392;51.082;17.080;2023-09-08T05:50:52;16.46;80.21
69281;SHT31;56392;51.082;17.080;2023-09-08T05:56:18;16.77;79.42
69281;SHT31;56392;51.082;17.080;2023-09-08T06:01:43;17.04;79.05
69281;SHT31;56392;51.082;17.080;2023-09-08T06:07:06;17.33;78.56
69281;SHT31;56392;51.082;17.080;2023-09-08T06:12:29;17.69;77.78
69281;SHT31;56392;51.082;17.080;2023-09-08T06:17:53;18.15;76.77
69281;SHT31;56392;51.082;17.080;2023-09-08T06:23:20;18.76;76.08
69281;SHT31;56392;51.082;17.080;2023-09-08T06:28:43;19.34;74.67
69281;SHT31;56392;51.082;17.080;2023-09-08T06:34:08;19.89;73.23
69281;SHT31;56392;51.082;17.080;2023-09-08T06:39:31;20.49;72.16
69281;SHT31;56392;51.082;17.080;2023-09-08T06:44:54;20.87;70.61
69281;SHT31;56392;51.082;17.080;2023-09-08T06:50:18;21.30;69.33
69281;SHT31;56392;51.082;17.080;2023-09-08T06:55:41;21.81;67.59
69281;SHT31;56392;51.082;17.080;2023-09-08T07:01:04;21.97;67.25
69281;SHT31;56392;51.082;17.080;2023-09-08T07:06:29;22.37;66.25
69281;SHT31;56392;51.082;17.080;2023-09-08T07:11:52;22.65;64.38
69281;SHT31;56392;51.082;17.080;2023-09-08T07:17:16;22.94;65.16
69281;SHT31;56392;51.082;17.080;2023-09-08T07:22:40;23.29;65.22
69281;SHT31;56392;51.082;17.080;2023-09-08T07:28:04;23.76;63.33
69281;SHT31;56392;51.082;17.080;2023-09-08T07:33:27;23.87;62.45
69281;SHT31;56392;51.082;17.080;2023-09-08T07:38:51;24.29;61.58
69281;SHT31;56392;51.082;17.080;2023-09-08T07:44:15;24.51;61.08
69281;SHT31;56392;51.082;17.080;2023-09-08T07:49:44;24.92;59.89
69281;SHT31;56392;51.082;17.080;2023-09-08T07:55:10;25.24;58.98
69281;SHT31;56392;51.082;17.080;2023-09-08T08:00:33;25.57;59.05
69281;SHT31;56392;51.082;17.080;2023-09-08T08:05:56;25.80;57.73
69281;SHT31;56392;51.082;17.080;2023-09-08T08:11:21;25.98;57.69
69281;SHT31;56392;51.082;17.080;2023-09-08T08:16:44;26.24;57.04
69281;SHT31;56392;51.082;17.080;2023-09-08T08:22:07;26.46;56.82
69281;SHT31;56392;51.082;17.080;2023-09-08T08:27:31;26.64;56.11
69281;SHT31;56392;51.082;17.080;2023-09-08T08:32:56;26.82;55.56
69281;SHT31;56392;51.082;17.080;2023-09-08T08:38:20;27.03;54.75
69281;SHT31;56392;51.082;17.080;2023-09-08T08:43:45;27.03;54.41
69281;SHT31;56392;51.082;17.080;2023-09-08T08:49:11;27.33;53.45
69281;SHT31;56392;51.082;17.080;2023-09-08T08:54:34;27.59;53.38
69281;SHT31;56392;51.082;17.080;2023-09-08T09:00:02;27.93;53.32
69281;SHT31;56392;51.082;17.080;2023-09-08T09:05:30;28.21;51.30
69281;SHT31;56392;51.082;17.080;2023-09-08T09:10:53;28.50;51.40
69281;SHT31;56392;51.082;17.080;2023-09-08T09:16:18;28.64;50.45
69281;SHT31;56392;51.082;17.080;2023-09-08T09:21:43;28.88;50.53
69281;SHT31;56392;51.082;17.080;2023-09-08T09:27:07;29.29;50.22
69281;SHT31;56392;51.082;17.080;2023-09-08T09:32:34;29.62;49.62
69281;SHT31;56392;51.082;17.080;2023-09-08T09:37:57;29.98;48.22
69281;SHT31;56392;51.082;17.080;2023-09-08T09:43:21;31.20;46.87
69281;SHT31;56392;51.082;17.080;2023-09-08T09:48:45;33.26;42.35
69281;SHT31;56392;51.082;17.080;2023-09-08T09:54:09;35.19;38.58
69281;SHT31;56392;51.082;17.080;2023-09-08T09:59:32;35.17;39.15
69281;SHT31;56392;51.082;17.080;2023-09-08T10:05:10;35.00;38.13
69281;SHT31;56392;51.082;17.080;2023-09-08T10:10:33;34.28;38.84
69281;SHT31;56392;51.082;17.080;2023-09-08T10:15:58;33.97;40.30
69281;SHT31;56392;51.082;17.080;2023-09-08T10:21:23;33.85;40.26
69281;SHT31;56392;51.082;17.080;2023-09-08T10:27:05;33.55;39.97
69281;SHT31;56392;51.082;17.080;2023-09-08T10:32:31;32.33;42.29
69281;SHT31;56392;51.082;17.080;2023-09-08T10:38:21;31.27;42.61
69281;SHT31;56392;51.082;17.080;2023-09-08T10:43:44;30.48;44.09
69281;SHT31;56392;51.082;17.080;2023-09-08T10:49:07;30.00;45.50
69281;SHT31;56392;51.082;17.080;2023-09-08T10:54:42;29.55;45.37
69281;SHT31;56392;51.082;17.080;2023-09-08T11:00:06;29.15;46.77
69281;SHT31;56392;51.082;17.080;2023-09-08T11:05:33;28.88;47.45
69281;SHT31;56392;51.082;17.080;2023-09-08T11:10:59;28.60;48.87
69281;SHT31;56392;51.082;17.080;2023-09-08T11:16:22;28.29;49.45
69281;SHT31;56392;51.082;17.080;2023-09-08T11:21:51;28.10;49.00
69281;SHT31;56392;51.082;17.080;2023-09-08T11:27:15;27.99;48.90
69281;SHT31;56392;51.082;17.080;2023-09-08T11:32:38;27.76;47.79
69281;SHT31;56392;51.082;17.080;2023-09-08T11:38:02;27.63;49.12
69281;SHT31;56392;51.082;17.080;2023-09-08T11:43:28;27.61;49.33
69281;SHT31;56392;51.082;17.080;2023-09-08T11:48:54;27.51;47.07
69281;SHT31;56392;51.082;17.080;2023-09-08T11:54:17;27.52;47.92
69281;SHT31;56392;51.082;17.080;2023-09-08T11:59:43;27.41;47.43
69281;SHT31;56392;51.082;17.080;2023-09-08T12:05:11;27.34;46.79
69281;SHT31;56392;51.082;17.080;2023-09-08T12:10:38;27.23;47.25
69281;SHT31;56392;51.082;17.080;2023-09-08T12:16:17;27.20;47.73
69281;SHT31;56392;51.082;17.080;2023-09-08T12:21:54;27.10;47.43
69281;SHT31;56392;51.082;17.080;2023-09-08T12:27:19;27.03;48.01
69281;SHT31;56392;51.082;17.080;2023-09-08T12:32:45;27.06;48.30
69281;SHT31;56392;51.082;17.080;2023-09-08T12:38:09;27.11;47.99
69281;SHT31;56392;51.082;17.080;2023-09-08T12:43:32;27.10;48.51
69281;SHT31;56392;51.082;17.080;2023-09-08T12:48:56;27.08;48.30
69281;SHT31;56392;51.082;17.080;2023-09-08T12:54:19;26.98;47.87
69281;SHT31;56392;51.082;17.080;2023-09-08T12:59:42;26.98;47.83
69281;SHT31;56392;51.082;17.080;2023-09-08T13:05:07;27.00;48.56
69281;SHT31;56392;51.082;17.080;2023-09-08T13:10:30;26.98;48.99
69281;SHT31;56392;51.082;17.080;2023-09-08T13:15:53;26.93;48.86
69281;SHT31;56392;51.082;17.080;2023-09-08T13:21:17;26.86;48.29
69281;SHT31;56392;51.082;17.080;2023-09-08T13:26:40;26.82;47.97
69281;SHT31;56392;51.082;17.080;2023-09-08T13:32:04;26.80;47.77
69281;SHT31;56392;51.082;17.080;2023-09-08T13:37:28;26.82;47.98
69281;SHT31;56392;51.082;17.080;2023-09-08T13:42:52;26.77;47.70
69281;SHT31;56392;51.082;17.080;2023-09-08T13:48:15;26.82;47.48
69281;SHT31;56392;51.082;17.080;2023-09-08T13:53:40;26.77;47.50
69281;SHT31;56392;51.082;17.080;2023-09-08T13:59:03;26.76;47.12
69281;SHT31;56392;51.082;17.080;2023-09-08T14:04:26;26.67;47.15
69281;SHT31;56392;51.082;17.080;2023-09-08T14:09:50;26.69;47.55
69281;SHT31;56392;51.082;17.080;2023-09-08T14:15:13;26.64;47.36
69281;SHT31;56392;51.082;17.080;2023-09-08T14:20:38;26.63;47.27
69281;SHT31;56392;51.082;17.080;2023-09-08T14:26:02;26.57;46.66
69281;SHT31;56392;51.082;17.080;2023-09-08T14:31:25;26.61;46.74
69281;SHT31;56392;51.082;17.080;2023-09-08T14:36:48;26.56;47.59
69281;SHT31;56392;51.082;17.080;2023-09-08T14:42:13;26.52;48.06
69281;SHT31;56392;51.082;17.080;2023-09-08T14:47:37;26.52;47.52
69281;SHT31;56392;51.082;17.080;2023-09-08T14:53:00;26.49;46.94
69281;SHT31;56392;51.082;17.080;2023-09-08T14:58:24;26.43;46.87
69281;SHT31;56392;51.082;17.080;2023-09-08T15:03:53;26.45;47.13
69281;SHT31;56392;51.082;17.080;2023-09-08T15:09:17;26.43;47.09
69281;SHT31;56392;51.082;17.080;2023-09-08T15:14:41;26.36;46.96
69281;SHT31;56392;51.082;17.080;2023-09-08T15:20:06;26.36;47.64
69281;SHT31;56392;51.082;17.080;2023-09-08T15:25:30;26.33;48.31
69281;SHT31;56392;51.082;17.080;2023-09-08T15:30:54;26.26;48.88
69281;SHT31;56392;51.082;17.080;2023-09-08T15:36:17;26.26;50.81
69281;SHT31;56392;51.082;17.080;2023-09-08T15:41:41;26.18;52.06
69281;SHT31;56392;51.082;17.080;2023-09-08T15:47:05;26.08;51.52
69281;SHT31;56392;51.082;17.080;2023-09-08T15:52:29;26.02;51.79
69281;SHT31;56392;51.082;17.080;2023-09-08T15:57:52;25.95;52.16
69281;SHT31;56392;51.082;17.080;2023-09-08T16:03:17;25.89;53.34
69281;SHT31;56392;51.082;17.080;2023-09-08T16:08:40;25.78;54.15
69281;SHT31;56392;51.082;17.080;2023-09-08T16:14:04;25.70;53.75
69281;SHT31;56392;51.082;17.080;2023-09-08T16:19:29;25.57;54.75
69281;SHT31;56392;51.082;17.080;2023-09-08T16:24:52;25.47;55.64
69281;SHT31;56392;51.082;17.080;2023-09-08T16:30:15;25.34;56.45
69281;SHT31;56392;51.082;17.080;2023-09-08T16:35:41;25.22;57.09
69281;SHT31;56392;51.082;17.080;2023-09-08T16:41:04;25.09;57.91
69281;SHT31;56392;51.082;17.080;2023-09-08T16:46:27;24.95;58.52
69281;SHT31;56392;51.082;17.080;2023-09-08T16:51:55;24.85;59.36
69281;SHT31;56392;51.082;17.080;2023-09-08T16:57:18;24.72;60.07
69281;SHT31;56392;51.082;17.080;2023-09-08T17:02:42;24.58;60.73
69281;SHT31;56392;51.082;17.080;2023-09-08T17:08:07;24.47;61.19
69281;SHT31;56392;51.082;17.080;2023-09-08T17:13:30;24.34;61.65
69281;SHT31;56392;51.082;17.080;2023-09-08T17:18:53;24.21;61.99
69281;SHT31;56392;51.082;17.080;2023-09-08T17:24:18;24.08;62.26
69281;SHT31;56392;51.082;17.080;2023-09-08T17:29:41;23.97;62.61
69281;SHT31;56392;51.082;17.080;2023-09-08T17:35:06;23.84;62.72
69281;SHT31;56392;51.082;17.080;2023-09-08T17:40:31;23.70;62.98
69281;SHT31;56392;51.082;17.080;2023-09-08T17:45:54;23.59;63.09
69281;SHT31;56392;51.082;17.080;2023-09-08T17:51:17;23.46;63.30
69281;SHT31;56392;51.082;17.080;2023-09-08T17:56:42;23.35;63.35
69281;SHT31;56392;51.082;17.080;2023-09-08T18:02:05;23.22;63.80
69281;SHT31;56392;51.082;17.080;2023-09-08T18:07:28;23.09;64.46
69281;SHT31;56392;51.082;17.080;2023-09-08T18:12:53;23.01;64.67
69281;SHT31;56392;51.082;17.080;2023-09-08T18:18:16;22.87;64.64
69281;SHT31;56392;51.082;17.080;2023-09-08T18:23:41;22.74;64.69
69281;SHT31;56392;51.082;17.080;2023-09-08T18:29:06;22.65;64.75
69281;SHT31;56392;51.082;17.080;2023-09-08T18:34:29;22.55;64.86
69281;SHT31;56392;51.082;17.080;2023-09-08T18:39:52;22.44;64.88
69281;SHT31;56392;51.082;17.080;2023-09-08T18:45:17;22.33;65.20
69281;SHT31;56392;51.082;17.080;2023-09-08T18:50:41;22.26;65.54
69281;SHT31;56392;51.082;17.080;2023-09-08T18:56:06;22.16;65.73
69281;SHT31;56392;51.082;17.080;2023-09-08T19:01:31;22.06;65.80
69281;SHT31;56392;51.082;17.080;2023-09-08T19:06:58;22.00;65.72
69281;SHT31;56392;51.082;17.080;2023-09-08T19:12:21;21.90;65.98
69281;SHT31;56392;51.082;17.080;2023-09-08T19:17:46;21.82;66.18
69281;SHT31;56392;51.082;17.080;2023-09-08T19:23:09;21.78;66.47
69281;SHT31;56392;51.082;17.080;2023-09-08T19:28:33;21.69;66.52
69281;SHT31;56392;51.082;17.080;2023-09-08T19:33:59;21.61;66.44
69281;SHT31;56392;51.082;17.080;2023-09-08T19:39:23;21.54;66.64
69281;SHT31;56392;51.082;17.080;2023-09-08T19:44:46;21.44;66.88
69281;SHT31;56392;51.082;17.080;2023-09-08T19:50:11;21.38;67.17
69281;SHT31;56392;51.082;17.080;2023-09-08T19:55:34;21.28;67.23
69281;SHT31;56392;51.082;17.080;2023-09-08T20:01:04;21.21;67.08
69281;SHT31;56392;51.082;17.080;2023-09-08T20:06:29;21.17;67.37
69281;SHT31;56392;51.082;17.080;2023-09-08T20:11:53;21.10;67.66
69281;SHT31;56392;51.082;17.080;2023-09-08T20:17:17;21.01;67.90
69281;SHT31;56392;51.082;17.080;2023-09-08T20:22:41;20.95;67.97
69281;SHT31;56392;51.082;17.080;2023-09-08T20:28:05;20.88;68.19
69281;SHT31;56392;51.082;17.080;2023-09-08T20:33:28;20.83;68.16
69281;SHT31;56392;51.082;17.080;2023-09-08T20:38:52;20.77;67.97
69281;SHT31;56392;51.082;17.080;2023-09-08T20:44:15;20.70;68.38
69281;SHT31;56392;51.082;17.080;2023-09-08T20:49:38;20.64;68.63
69281;SHT31;56392;51.082;17.080;2023-09-08T20:55:03;20.60;68.65
69281;SHT31;56392;51.082;17.080;2023-09-08T21:00:26;20.56;68.68
69281;SHT31;56392;51.082;17.080;2023-09-08T21:05:51;20.47;68.82
69281;SHT31;56392;51.082;17.080;2023-09-08T21:11:16;20.43;68.96
69281;SHT31;56392;51.082;17.080;2023-09-08T21:16:39;20.36;69.09
69281;SHT31;56392;51.082;17.080;2023-09-08T21:22:04;20.33;69.24
69281;SHT31;56392;51.082;17.080;2023-09-08T21:27:28;20.26;69.41
69281;SHT31;56392;51.082;17.080;2023-09-08T21:32:53;20.26;69.67
69281;SHT31;56392;51.082;17.080;2023-09-08T21:38:16;20.21;69.62
69281;SHT31;56392;51.082;17.080;2023-09-08T21:43:43;20.16;69.65
69281;SHT31;56392;51.082;17.080;2023-09-08T21:49:06;20.11;69.85
69281;SHT31;56392;51.082;17.080;2023-09-08T21:54:29;20.05;69.92
69281;SHT31;56392;51.082;17.080;2023-09-08T21:59:54;20.04;69.90
69281;SHT31;56392;51.082;17.080;2023-09-08T22:05:17;19.99;70.05
69281;SHT31;56392;51.082;17.080;2023-09-08T22:10:40;19.95;70.10
69281;SHT31;56392;51.082;17.080;2023-09-08T22:16:05;19.92;70.21
69281;SHT31;56392;51.082;17.080;2023-09-08T22:21:28;19.85;70.36
69281;SHT31;56392;51.082;17.080;2023-09-08T22:26:55;19.81;70.49
69281;SHT31;56392;51.082;17.080;2023-09-08T22:32:19;19.82;70.43
69281;SHT31;56392;51.082;17.080;2023-09-08T22:37:42;19.81;70.51
69281;SHT31;56392;51.082;17.080;2023-09-08T22:43:06;19.78;70.44
69281;SHT31;56392;51.082;17.080;2023-09-08T22:48:30;19.71;70.59
69281;SHT31;56392;51.082;17.080;2023-09-08T22:53:54;19.67;70.60
69281;SHT31;56392;51.082;17.080;2023-09-08T22:59:17;19.64;70.71
69281;SHT31;56392;51.082;17.080;2023-09-08T23:04:42;19.60;70.56
69281;SHT31;56392;51.082;17.080;2023-09-08T23:10:05;19.53;70.73
69281;SHT31;56392;51.082;17.080;2023-09-08T23:15:28;19.49;70.89
69281;SHT31;56392;51.082;17.080;2023-09-08T23:20:55;19.47;70.67
69281;SHT31;56392;51.082;17.080;2023-09-08T23:26:18;19.38;70.87
69281;SHT31;56392;51.082;17.080;2023-09-08T23:31:42;19.37;71.00
69281;SHT31;56392;51.082;17.080;2023-09-08T23:37:07;19.30;71.02
69281;SHT31;56392;51.082;17.080;2023-09-08T23:42:30;19.27;71.26
69281;SHT31;56392;51.082;17.080;2023-09-08T23:47:53;19.24;71.12
69281;SHT31;56392;51.082;17.080;2023-09-08T23:53:18;19.22;71.25
69281;SHT31;56392;51.082;17.080;2023-09-08T23:58:42;19.17;71.30
